createdAt,value
2022-09-27T00:00:44.626Z,972.10
2022-09-27T00:01:44.703Z,972.05
2022-09-27T00:02:44.678Z,972.06
2022-09-27T00:03:44.609Z,972.08
2022-09-27T00:04:44.611Z,972.07
2022-09-27T00:05:44.584Z,972.05
2022-09-27T00:06:44.581Z,972.01
2022-09-27T00:07:44.565Z,971.93
2022-09-27T00:08:44.566Z,971.93
2022-09-27T00:09:46.496Z,972.01
2022-09-27T00:10:44.551Z,971.97
2022-09-27T00:11:44.545Z,972.00
2022-09-27T00:12:44.547Z,971.96
2022-09-27T00:13:44.522Z,971.99
2022-09-27T00:14:44.524Z,971.99
2022-09-27T00:15:44.536Z,971.97
2022-09-27T00:16:44.498Z,971.93
2022-09-27T00:17:45.422Z,971.92
2022-09-27T00:18:44.481Z,971.94
2022-09-27T00:19:44.484Z,971.96
2022-09-27T00:20:44.483Z,971.97
2022-09-27T00:21:44.462Z,971.94
2022-09-27T00:22:44.455Z,971.89
2022-09-27T00:23:44.447Z,971.90
2022-09-27T00:24:44.450Z,971.97
2022-09-27T00:25:44.428Z,971.90
2022-09-27T00:26:44.428Z,971.89
2022-09-27T00:27:44.419Z,971.89
2022-09-27T00:28:44.407Z,971.91
2022-09-27T00:30:56.056Z,971.85
2022-09-27T00:31:57.082Z,971.86
2022-09-27T00:32:57.061Z,971.89
2022-09-27T00:33:57.061Z,971.87
2022-09-27T00:34:57.048Z,971.87
2022-09-27T00:35:57.034Z,971.85
2022-09-27T00:36:57.043Z,971.85
2022-09-27T00:37:57.019Z,971.81
2022-09-27T00:38:57.015Z,971.84
2022-09-27T00:39:57.010Z,971.85
2022-09-27T00:40:57.137Z,971.82
2022-09-27T00:41:56.985Z,971.81
2022-09-27T00:42:56.988Z,971.78
2022-09-27T00:43:56.970Z,971.72
2022-09-27T00:44:56.976Z,971.82
2022-09-27T00:45:57.008Z,971.80
2022-09-27T00:46:56.946Z,971.79
2022-09-27T00:47:56.949Z,971.68
2022-09-27T00:48:57.845Z,971.71
2022-09-27T00:49:57.935Z,971.69
2022-09-27T00:50:56.942Z,971.66
2022-09-27T00:51:56.906Z,971.62
2022-09-27T00:52:56.914Z,971.64
2022-09-27T00:53:56.891Z,971.66
2022-09-27T00:54:56.885Z,971.62
2022-09-27T00:55:56.870Z,971.61
2022-09-27T00:56:57.878Z,971.55
2022-09-27T00:57:56.853Z,971.61
2022-09-27T00:58:56.852Z,971.59
2022-09-27T00:59:56.847Z,971.61
2022-09-27T01:00:56.937Z,971.54
2022-09-27T01:01:56.960Z,971.56
2022-09-27T01:02:56.915Z,971.58
2022-09-27T01:03:56.815Z,971.52
2022-09-27T01:04:56.814Z,971.58
2022-09-27T01:05:56.827Z,971.55
2022-09-27T01:06:56.782Z,971.58
2022-09-27T01:07:56.811Z,971.48
2022-09-27T01:08:56.769Z,971.55
2022-09-27T01:09:56.765Z,971.53
2022-09-27T01:10:56.772Z,971.53
2022-09-27T01:11:56.766Z,971.51
2022-09-27T01:12:56.739Z,971.52
2022-09-27T01:13:56.725Z,971.47
2022-09-27T01:14:56.715Z,971.46
2022-09-27T01:15:56.795Z,971.48
2022-09-27T01:16:56.708Z,971.46
2022-09-27T01:17:56.703Z,971.47
2022-09-27T01:18:56.691Z,971.51
2022-09-27T01:19:56.683Z,971.52
2022-09-27T01:20:56.689Z,971.48
2022-09-27T01:21:56.662Z,971.54
2022-09-27T01:22:56.661Z,971.52
2022-09-27T01:23:56.653Z,971.49
2022-09-27T01:24:56.645Z,971.54
2022-09-27T01:25:56.664Z,971.52
2022-09-27T01:26:56.625Z,971.51
2022-09-27T01:27:56.618Z,971.49
2022-09-27T01:28:57.313Z,971.52
2022-09-27T01:29:56.612Z,971.51
2022-09-27T01:30:56.686Z,971.46
2022-09-27T01:31:56.589Z,971.47
2022-09-27T01:32:56.584Z,971.46
2022-09-27T01:33:56.590Z,971.45
2022-09-27T01:34:56.560Z,971.46
2022-09-27T01:35:56.575Z,971.46
2022-09-27T01:36:56.539Z,971.46
2022-09-27T01:37:56.531Z,971.44
2022-09-27T01:38:56.530Z,971.44
2022-09-27T01:39:56.528Z,971.43
2022-09-27T01:40:57.415Z,971.42
2022-09-27T01:41:56.512Z,971.41
2022-09-27T01:42:56.496Z,971.42
2022-09-27T01:43:56.488Z,971.46
2022-09-27T01:44:56.527Z,971.46
2022-09-27T01:45:56.579Z,971.43
2022-09-27T01:46:56.878Z,971.40
2022-09-27T01:47:56.457Z,971.42
2022-09-27T01:48:56.447Z,971.36
2022-09-27T01:49:56.444Z,971.31
2022-09-27T01:50:56.428Z,971.38
2022-09-27T01:51:56.423Z,971.33
2022-09-27T01:52:57.357Z,971.38
2022-09-27T01:53:56.405Z,971.32
2022-09-27T01:54:56.393Z,971.31
2022-09-27T01:55:56.402Z,971.30
2022-09-27T01:56:56.385Z,971.28
2022-09-27T01:57:56.374Z,971.27
2022-09-27T01:58:56.368Z,971.33
2022-09-27T01:59:56.355Z,971.30
2022-09-27T02:00:56.352Z,971.28
2022-09-27T02:01:56.418Z,971.28
2022-09-27T02:02:56.387Z,971.34
2022-09-27T02:03:57.906Z,971.32
2022-09-27T02:06:02.613Z,971.28
2022-09-27T02:07:02.628Z,971.33
2022-09-27T02:08:02.603Z,971.26
2022-09-27T02:09:02.592Z,971.27
2022-09-27T02:10:03.445Z,971.27
2022-09-27T02:11:02.574Z,971.28
2022-09-27T02:12:02.570Z,971.23
2022-09-27T02:13:02.568Z,971.21
2022-09-27T02:14:02.552Z,971.28
2022-09-27T02:15:02.539Z,971.24
2022-09-27T02:16:02.627Z,971.22
2022-09-27T02:17:05.454Z,971.23
2022-09-27T02:18:02.518Z,971.18
2022-09-27T02:19:02.506Z,971.18
2022-09-27T02:20:03.594Z,971.17
2022-09-27T02:22:10.424Z,971.17
2022-09-27T02:23:10.434Z,971.21
2022-09-27T02:24:10.409Z,971.14
2022-09-27T02:25:10.545Z,971.18
2022-09-27T02:26:10.392Z,971.17
2022-09-27T02:27:10.386Z,971.14
2022-09-27T02:28:10.387Z,971.15
2022-09-27T02:29:10.382Z,971.15
2022-09-27T02:30:10.368Z,971.10
2022-09-27T02:31:10.442Z,971.06
2022-09-27T02:32:10.345Z,971.05
2022-09-27T02:33:10.353Z,971.08
2022-09-27T02:34:10.325Z,971.13
2022-09-27T02:35:10.438Z,971.12
2022-09-27T02:36:10.316Z,971.15
2022-09-27T02:37:10.302Z,971.10
2022-09-27T02:38:10.300Z,971.15
2022-09-27T02:39:10.373Z,971.18
2022-09-27T02:40:10.404Z,971.21
2022-09-27T02:41:10.277Z,971.07
2022-09-27T02:42:11.366Z,971.16
2022-09-27T02:43:11.349Z,971.12
2022-09-27T02:44:11.351Z,971.16
2022-09-27T02:45:11.336Z,971.15
2022-09-27T02:46:11.360Z,971.15
2022-09-27T02:47:11.323Z,971.10
2022-09-27T02:48:11.315Z,971.20
2022-09-27T02:49:11.401Z,971.20
2022-09-27T02:50:11.292Z,971.18
2022-09-27T02:51:11.296Z,971.19
2022-09-27T02:52:11.276Z,971.13
2022-09-27T02:53:11.276Z,971.13
2022-09-27T02:54:11.271Z,971.14
2022-09-27T02:55:11.254Z,971.17
2022-09-27T02:56:11.252Z,971.16
2022-09-27T02:57:11.285Z,971.19
2022-09-27T02:58:11.234Z,971.16
2022-09-27T02:59:11.226Z,971.22
2022-09-27T03:00:11.211Z,971.20
2022-09-27T03:01:11.290Z,971.19
2022-09-27T03:02:13.782Z,971.23
2022-09-27T03:03:12.302Z,971.18
2022-09-27T03:04:11.188Z,971.17
2022-09-27T03:05:11.868Z,971.23
2022-09-27T03:06:12.872Z,971.20
2022-09-27T03:07:11.158Z,971.22
2022-09-27T03:08:11.799Z,971.19
2022-09-27T03:09:11.180Z,971.18
2022-09-27T03:10:11.873Z,971.21
2022-09-27T03:11:11.129Z,971.20
2022-09-27T03:12:11.118Z,971.22
2022-09-27T03:13:11.103Z,971.23
2022-09-27T03:14:11.107Z,971.21
2022-09-27T03:15:11.143Z,971.16
2022-09-27T03:16:11.098Z,971.23
2022-09-27T03:17:11.149Z,971.19
2022-09-27T03:18:11.065Z,971.16
2022-09-27T03:19:11.195Z,971.19
2022-09-27T03:20:11.055Z,971.19
2022-09-27T03:21:11.857Z,971.19
2022-09-27T03:22:11.034Z,971.23
2022-09-27T03:23:11.028Z,971.21
2022-09-27T03:24:11.874Z,971.24
2022-09-27T03:25:11.015Z,971.20
2022-09-27T03:26:13.220Z,971.18
2022-09-27T03:27:12.003Z,971.19
2022-09-27T03:28:10.988Z,971.22
2022-09-27T03:29:10.980Z,971.20
2022-09-27T03:30:10.969Z,971.20
2022-09-27T03:31:11.084Z,971.22
2022-09-27T03:32:10.955Z,971.20
2022-09-27T03:33:10.952Z,971.21
2022-09-27T03:34:10.943Z,971.16
2022-09-27T03:35:10.928Z,971.11
2022-09-27T03:36:11.395Z,971.13
2022-09-27T03:37:10.912Z,971.10
2022-09-27T03:38:10.914Z,971.16
2022-09-27T03:39:10.943Z,971.11
2022-09-27T03:40:10.889Z,971.16
2022-09-27T03:41:11.895Z,971.14
2022-09-27T03:42:10.875Z,971.19
2022-09-27T03:43:10.867Z,971.15
2022-09-27T03:44:10.860Z,971.19
2022-09-27T03:45:10.846Z,971.14
2022-09-27T03:46:12.431Z,971.19
2022-09-27T03:47:10.830Z,971.20
2022-09-27T03:48:10.824Z,971.17
2022-09-27T03:49:11.807Z,971.17
2022-09-27T03:50:10.808Z,971.20
2022-09-27T03:51:10.813Z,971.13
2022-09-27T03:52:10.798Z,971.15
2022-09-27T03:53:10.785Z,971.14
2022-09-27T03:54:10.779Z,971.08
2022-09-27T03:55:10.772Z,971.14
2022-09-27T03:56:12.300Z,971.21
2022-09-27T03:57:10.749Z,971.24
2022-09-27T03:58:10.748Z,971.15
2022-09-27T03:59:10.842Z,971.16
2022-09-27T04:00:11.383Z,971.17
2022-09-27T04:01:10.801Z,971.17
2022-09-27T04:02:10.774Z,971.14
2022-09-27T04:03:10.702Z,971.15
2022-09-27T04:04:11.568Z,971.16
2022-09-27T04:05:10.699Z,971.15
2022-09-27T04:06:10.683Z,971.16
2022-09-27T04:07:10.673Z,971.18
2022-09-27T04:08:11.392Z,971.20
2022-09-27T04:09:10.727Z,971.13
2022-09-27T04:10:11.312Z,971.17
2022-09-27T04:11:10.636Z,971.17
2022-09-27T04:12:10.668Z,971.15
2022-09-27T04:13:10.618Z,971.15
2022-09-27T04:14:10.620Z,971.20
2022-09-27T04:15:10.617Z,971.14
2022-09-27T04:16:10.599Z,971.20
2022-09-27T04:17:10.623Z,971.22
2022-09-27T04:18:10.582Z,971.24
2022-09-27T04:19:10.584Z,971.16
2022-09-27T04:20:10.568Z,971.21
2022-09-27T04:21:10.564Z,971.21
2022-09-27T04:22:10.551Z,971.22
2022-09-27T04:23:10.542Z,971.18
2022-09-27T04:24:10.532Z,971.18
2022-09-27T04:25:10.534Z,971.21
2022-09-27T04:26:10.524Z,971.18
2022-09-27T04:27:10.509Z,971.28
2022-09-27T04:28:10.513Z,971.27
2022-09-27T04:29:10.546Z,971.32
2022-09-27T04:30:10.496Z,971.21
2022-09-27T04:31:10.577Z,971.29
2022-09-27T04:32:10.482Z,971.30
2022-09-27T04:33:10.468Z,971.30
2022-09-27T04:34:10.459Z,971.33
2022-09-27T04:35:10.470Z,971.40
2022-09-27T04:36:11.442Z,971.35
2022-09-27T04:37:10.445Z,971.39
2022-09-27T04:38:10.429Z,971.46
2022-09-27T04:39:11.452Z,971.37
2022-09-27T04:40:11.322Z,971.41
2022-09-27T04:41:10.416Z,971.44
2022-09-27T04:42:10.395Z,971.53
2022-09-27T04:43:10.889Z,971.48
2022-09-27T04:44:10.390Z,971.49
2022-09-27T04:45:10.377Z,971.60
2022-09-27T04:46:10.415Z,971.57
2022-09-27T04:47:12.318Z,971.59
2022-09-27T04:48:10.352Z,971.67
2022-09-27T04:49:10.397Z,971.63
2022-09-27T04:50:10.339Z,971.62
2022-09-27T04:51:11.325Z,971.65
2022-09-27T04:52:10.323Z,971.68
2022-09-27T04:53:10.314Z,971.68
2022-09-27T04:54:10.897Z,971.66
2022-09-27T04:55:10.305Z,971.69
2022-09-27T04:56:10.900Z,971.66
2022-09-27T04:57:10.279Z,971.69
2022-09-27T04:58:10.287Z,971.72
2022-09-27T04:59:10.950Z,971.74
2022-09-27T05:00:10.268Z,971.75
2022-09-27T05:01:10.384Z,971.75
2022-09-27T05:02:10.272Z,971.77
2022-09-27T05:03:10.233Z,971.80
2022-09-27T05:04:10.235Z,971.80
2022-09-27T05:05:10.221Z,971.80
2022-09-27T05:06:10.211Z,971.77
2022-09-27T05:07:10.903Z,971.80
2022-09-27T05:08:10.194Z,971.84
2022-09-27T05:09:10.875Z,971.83
2022-09-27T05:10:10.177Z,971.83
2022-09-27T05:11:10.178Z,971.84
2022-09-27T05:12:10.161Z,971.87
2022-09-27T05:13:10.158Z,971.88
2022-09-27T05:14:10.155Z,971.90
2022-09-27T05:15:11.141Z,971.88
2022-09-27T05:16:10.341Z,971.87
2022-09-27T05:17:10.208Z,971.93
2022-09-27T05:18:10.154Z,971.90
2022-09-27T05:19:10.109Z,971.94
2022-09-27T05:20:10.905Z,971.96
2022-09-27T05:21:10.098Z,971.93
2022-09-27T05:22:10.083Z,971.92
2022-09-27T05:23:10.069Z,971.91
2022-09-27T05:24:10.070Z,971.94
2022-09-27T05:25:10.061Z,971.95
2022-09-27T05:26:10.053Z,971.95
2022-09-27T05:27:10.049Z,971.95
2022-09-27T05:28:10.032Z,972.02
2022-09-27T05:29:10.065Z,971.99
2022-09-27T05:30:10.031Z,971.99
2022-09-27T05:31:10.109Z,972.04
2022-09-27T05:32:10.845Z,971.96
2022-09-27T05:33:11.917Z,972.02
2022-09-27T05:34:09.983Z,972.03
2022-09-27T05:35:09.978Z,972.05
2022-09-27T05:36:09.976Z,972.10
2022-09-27T05:37:09.964Z,972.06
2022-09-27T05:38:10.830Z,972.06
2022-09-27T05:39:09.950Z,972.06
2022-09-27T05:40:29.278Z,972.05
2022-09-27T05:41:12.004Z,972.10
2022-09-27T05:42:09.921Z,972.08
2022-09-27T05:43:09.917Z,972.08
2022-09-27T05:44:09.919Z,972.09
2022-09-27T05:45:09.916Z,972.14
2022-09-27T05:46:10.923Z,972.17
2022-09-27T05:47:11.413Z,972.15
2022-09-27T05:48:09.876Z,972.11
2022-09-27T05:49:09.870Z,972.11
2022-09-27T05:50:09.866Z,972.11
2022-09-27T05:51:10.839Z,972.15
2022-09-27T05:52:15.005Z,972.18
2022-09-27T05:53:11.840Z,972.23
2022-09-27T05:54:10.456Z,972.21
2022-09-27T05:55:10.412Z,972.25
2022-09-27T05:56:09.820Z,972.25
2022-09-27T05:57:09.810Z,972.25
2022-09-27T05:59:19.119Z,972.37
2022-09-27T06:00:19.102Z,972.28
2022-09-27T06:01:20.304Z,972.28
2022-09-27T06:02:20.202Z,972.28
2022-09-27T06:03:20.164Z,972.26
2022-09-27T06:04:20.167Z,972.26
2022-09-27T06:05:20.148Z,972.32
2022-09-27T06:06:20.183Z,972.34
2022-09-27T06:07:20.132Z,972.24
2022-09-27T06:08:20.642Z,972.34
2022-09-27T06:09:20.645Z,972.35
2022-09-27T06:10:20.129Z,972.38
2022-09-27T06:11:20.127Z,972.32
2022-09-27T06:12:20.112Z,972.33
2022-09-27T06:13:20.081Z,972.36
2022-09-27T06:14:20.082Z,972.34
2022-09-27T06:15:20.069Z,972.39
2022-09-27T06:16:23.679Z,972.41
2022-09-27T06:17:22.661Z,972.41
2022-09-27T06:18:20.050Z,972.44
2022-09-27T06:19:20.067Z,972.49
2022-09-27T06:20:20.022Z,972.46
2022-09-27T06:21:20.019Z,972.48
2022-09-27T06:22:20.643Z,972.43
2022-09-27T06:23:20.012Z,972.49
2022-09-27T06:24:21.011Z,972.54
2022-09-27T06:25:20.008Z,972.52
2022-09-27T06:26:20.038Z,972.54
2022-09-27T06:27:19.972Z,972.56
2022-09-27T06:28:22.724Z,972.55
2022-09-27T06:29:19.953Z,972.53
2022-09-27T06:30:21.718Z,972.59
2022-09-27T06:31:19.967Z,972.57
2022-09-27T06:32:19.939Z,972.59
2022-09-27T06:33:20.645Z,972.59
2022-09-27T06:34:19.926Z,972.61
2022-09-27T06:35:19.910Z,972.58
2022-09-27T06:36:20.253Z,972.65
2022-09-27T06:37:19.895Z,972.62
2022-09-27T06:38:19.927Z,972.71
2022-09-27T06:39:19.884Z,972.69
2022-09-27T06:40:19.899Z,972.71
2022-09-27T06:41:19.865Z,972.65
2022-09-27T06:42:19.830Z,972.71
2022-09-27T06:43:19.845Z,972.78
2022-09-27T06:44:19.839Z,972.74
2022-09-27T06:45:21.755Z,972.79
2022-09-27T06:46:19.902Z,972.81
2022-09-27T06:47:20.607Z,972.87
2022-09-27T06:48:19.797Z,972.92
2022-09-27T06:49:19.799Z,972.86
2022-09-27T06:50:19.792Z,972.84
2022-09-27T06:51:21.220Z,972.85
2022-09-27T06:52:21.733Z,972.88
2022-09-27T06:53:20.734Z,972.89
2022-09-27T06:54:19.890Z,972.86
2022-09-27T06:55:20.653Z,972.96
2022-09-27T06:56:19.765Z,972.98
2022-09-27T06:57:19.727Z,973.01
2022-09-27T06:58:19.712Z,973.00
2022-09-27T06:59:19.702Z,973.02
2022-09-27T07:00:23.154Z,973.00
2022-09-27T07:01:20.379Z,973.07
2022-09-27T07:02:19.713Z,973.06
2022-09-27T07:03:19.674Z,973.07
2022-09-27T07:04:20.248Z,973.08
2022-09-27T07:05:19.813Z,973.10
2022-09-27T07:06:19.661Z,973.13
2022-09-27T07:07:19.645Z,973.19
2022-09-27T07:08:19.634Z,973.21
2022-09-27T07:09:19.629Z,973.21
2022-09-27T07:10:20.252Z,973.20
2022-09-27T07:11:19.614Z,973.26
2022-09-27T07:12:19.636Z,973.23
2022-09-27T07:13:19.725Z,973.26
2022-09-27T07:14:19.705Z,973.29
2022-09-27T07:15:19.711Z,973.27
2022-09-27T07:16:52.281Z,973.31
2022-09-27T07:17:19.604Z,973.34
2022-09-27T07:18:19.552Z,973.30
2022-09-27T07:19:19.554Z,973.31
2022-09-27T07:20:20.178Z,973.37
2022-09-27T07:21:19.541Z,973.33
2022-09-27T07:22:19.532Z,973.38
2022-09-27T07:23:19.519Z,973.44
2022-09-27T07:24:19.500Z,973.43
2022-09-27T07:25:19.499Z,973.46
2022-09-27T07:26:19.487Z,973.49
2022-09-27T07:27:19.497Z,973.45
2022-09-27T07:28:22.002Z,973.46
2022-09-27T07:29:20.468Z,973.44
2022-09-27T07:30:19.466Z,973.48
2022-09-27T07:31:19.458Z,973.50
2022-09-27T07:32:19.442Z,973.47
2022-09-27T07:33:19.443Z,973.54
2022-09-27T07:34:19.443Z,973.46
2022-09-27T07:35:21.269Z,973.56
2022-09-27T07:36:20.170Z,973.56
2022-09-27T07:37:19.437Z,973.65
2022-09-27T07:38:19.411Z,973.56
2022-09-27T07:39:19.398Z,973.53
2022-09-27T07:40:19.451Z,973.61
2022-09-27T07:41:19.390Z,973.54
2022-09-27T07:42:20.280Z,973.60
2022-09-27T07:43:19.380Z,973.60
2022-09-27T07:44:19.350Z,973.57
2022-09-27T07:45:19.347Z,973.61
2022-09-27T07:46:19.357Z,973.62
2022-09-27T07:47:19.325Z,973.67
2022-09-27T07:48:19.348Z,973.66
2022-09-27T07:49:19.379Z,973.71
2022-09-27T07:50:19.294Z,973.75
2022-09-27T07:51:19.293Z,973.77
2022-09-27T07:52:19.288Z,973.65
2022-09-27T07:53:19.279Z,973.74
2022-09-27T07:54:19.272Z,973.76
2022-09-27T07:55:19.260Z,973.75
2022-09-27T07:56:19.239Z,973.77
2022-09-27T07:57:20.247Z,973.79
2022-09-27T07:58:19.259Z,973.80
2022-09-27T07:59:19.228Z,973.79
2022-09-27T08:00:19.225Z,973.81
2022-09-27T08:01:19.302Z,973.81
2022-09-27T21:30:04.487Z,975.58
2022-09-27T21:31:04.527Z,975.53
2022-09-27T21:32:05.575Z,975.52
2022-09-27T21:33:06.314Z,975.52
2022-09-27T21:34:05.539Z,975.55
2022-09-27T21:35:05.541Z,975.58
2022-09-27T21:36:05.517Z,975.61
2022-09-27T21:37:05.506Z,975.59
2022-09-27T21:38:05.511Z,975.63
2022-09-27T21:39:05.494Z,975.56
2022-09-27T21:40:07.384Z,975.57
2022-09-27T21:41:06.529Z,975.56
2022-09-27T21:42:07.314Z,975.57
2022-09-27T21:43:05.459Z,975.53
2022-09-27T21:44:06.347Z,975.58
2022-09-27T21:45:05.464Z,975.58
2022-09-27T21:46:05.428Z,975.55
2022-09-27T21:47:05.512Z,975.61
2022-09-27T21:48:05.411Z,975.55
2022-09-27T21:49:05.421Z,975.58
2022-09-27T21:50:05.402Z,975.59
2022-09-27T21:51:05.388Z,975.58
2022-09-27T21:52:05.387Z,975.57
2022-09-27T21:53:05.374Z,975.60
2022-09-27T21:54:05.384Z,975.60
2022-09-27T21:55:05.364Z,975.62
2022-09-27T21:56:05.348Z,975.59
2022-09-27T21:57:05.349Z,975.63
2022-09-27T21:58:05.331Z,975.54
2022-09-27T21:59:05.343Z,975.52
2022-09-27T22:00:05.318Z,975.46
2022-09-27T22:01:05.341Z,975.46
2022-09-27T22:02:05.354Z,975.48
2022-09-27T22:03:05.358Z,975.48
2022-09-27T22:04:05.305Z,975.48
2022-09-27T22:05:05.278Z,975.45
2022-09-27T22:06:05.261Z,975.44
2022-09-27T22:07:05.283Z,975.44
2022-09-27T22:08:05.247Z,975.42
2022-09-27T22:09:05.248Z,975.43
2022-09-27T22:10:05.237Z,975.41
2022-09-27T22:11:05.260Z,975.45
2022-09-27T22:12:05.223Z,975.37
2022-09-27T22:13:05.232Z,975.42
2022-09-27T22:14:05.206Z,975.36
2022-09-27T22:15:05.215Z,975.39
2022-09-27T22:16:05.883Z,975.38
2022-09-27T22:17:08.810Z,975.27
2022-09-27T22:18:06.900Z,975.34
2022-09-27T22:19:05.172Z,975.36
2022-09-27T22:20:05.151Z,975.28
2022-09-27T22:21:05.150Z,975.30
2022-09-27T22:22:05.142Z,975.32
2022-09-27T22:23:05.785Z,975.30
2022-09-27T22:24:07.827Z,975.24
2022-09-27T22:25:06.124Z,975.26
2022-09-27T22:26:05.115Z,975.28
2022-09-27T22:27:05.094Z,975.21
2022-09-27T22:28:05.822Z,975.22
2022-09-27T22:29:05.085Z,975.21
2022-09-27T22:30:05.075Z,975.17
2022-09-27T22:31:05.125Z,975.16
2022-09-27T22:32:05.924Z,975.15
2022-09-27T22:33:06.055Z,975.15
2022-09-27T22:34:05.039Z,975.14
2022-09-27T22:35:05.038Z,975.23
2022-09-27T22:36:05.023Z,975.20
2022-09-27T22:37:05.017Z,975.23
2022-09-27T22:38:05.835Z,975.21
2022-09-27T22:39:05.024Z,975.18
2022-09-27T22:40:05.001Z,975.20
2022-09-27T22:41:04.990Z,975.18
2022-09-27T22:42:04.974Z,975.16
2022-09-27T22:43:04.988Z,975.10
2022-09-27T22:44:04.956Z,975.12
2022-09-27T22:45:04.964Z,975.12
2022-09-27T22:46:04.937Z,975.12
2022-09-27T22:47:04.969Z,975.05
2022-09-27T22:48:04.937Z,975.01
2022-09-27T22:49:04.926Z,974.99
2022-09-27T22:50:04.919Z,974.95
2022-09-27T22:51:04.896Z,974.95
2022-09-27T22:52:04.893Z,974.94
2022-09-27T22:53:04.899Z,974.93
2022-09-27T22:54:04.880Z,974.92
2022-09-27T22:55:04.867Z,974.99
2022-09-27T22:56:04.991Z,974.89
2022-09-27T22:57:04.860Z,974.92
2022-09-27T22:58:04.851Z,974.91
2022-09-27T22:59:04.847Z,974.87
2022-09-27T23:00:04.826Z,974.85
2022-09-27T23:01:04.831Z,974.86
2022-09-27T23:02:04.828Z,974.83
2022-09-27T23:03:05.334Z,974.81
2022-09-27T23:04:04.849Z,974.76
2022-09-27T23:05:04.801Z,974.74
2022-09-27T23:06:08.348Z,974.71
2022-09-27T23:07:04.791Z,974.77
2022-09-27T23:08:04.775Z,974.65
2022-09-27T23:09:04.760Z,974.60
2022-09-27T23:10:04.760Z,974.60
2022-09-27T23:11:04.753Z,974.57
2022-09-27T23:12:04.738Z,974.56
2022-09-27T23:13:04.754Z,974.55
2022-09-27T23:14:04.725Z,974.49
2022-09-27T23:15:04.722Z,974.49
2022-09-27T23:16:04.732Z,974.48
2022-09-27T23:17:05.413Z,974.49
2022-09-27T23:18:04.687Z,974.47
2022-09-27T23:19:04.698Z,974.44
2022-09-27T23:20:04.675Z,974.43
2022-09-27T23:21:04.678Z,974.46
2022-09-27T23:22:04.661Z,974.46
2022-09-27T23:23:04.678Z,974.45
2022-09-27T23:24:04.648Z,974.46
2022-09-27T23:25:04.632Z,974.44
2022-09-27T23:26:04.632Z,974.42
2022-09-27T23:27:04.628Z,974.45
2022-09-27T23:28:04.617Z,974.40
2022-09-27T23:29:04.602Z,974.32
2022-09-27T23:30:05.298Z,974.38
2022-09-27T23:31:04.742Z,974.34
2022-09-27T23:32:04.583Z,974.34
2022-09-27T23:33:04.575Z,974.30
2022-09-27T23:34:04.570Z,974.30
2022-09-27T23:35:04.593Z,974.25
2022-09-27T23:36:04.548Z,974.26
2022-09-27T23:37:04.542Z,974.27
2022-09-27T23:38:04.522Z,974.26
2022-09-27T23:39:04.521Z,974.26
2022-09-27T23:40:04.559Z,974.26
2022-09-27T23:41:04.516Z,974.25
2022-09-27T23:42:04.505Z,974.27
2022-09-27T23:43:04.502Z,974.28
2022-09-27T23:44:04.491Z,974.22
2022-09-27T23:45:04.478Z,974.21
2022-09-27T23:46:04.453Z,974.25
2022-09-27T23:47:05.544Z,974.21
2022-09-27T23:48:04.450Z,974.19
2022-09-27T23:49:04.448Z,974.17
2022-09-27T23:50:04.434Z,974.22
2022-09-27T23:51:04.438Z,974.18
2022-09-27T23:52:04.419Z,974.20
2022-09-27T23:53:04.415Z,974.16
2022-09-27T23:54:05.405Z,974.15
2022-09-27T23:55:04.396Z,974.16
2022-09-27T23:56:04.395Z,974.13
2022-09-27T23:57:04.403Z,974.10
2022-09-27T23:58:05.344Z,974.05
2022-09-27T23:59:04.365Z,974.10
